createdAt,value
2023-03-18T00:01:42.464Z,100478.77
2023-03-18T00:04:11.596Z,100480.77
2023-03-18T00:06:40.689Z,100477.92
2023-03-18T00:09:12.637Z,100476.45
2023-03-18T00:11:42.056Z,100473.91
2023-03-18T00:14:11.330Z,100470.60
2023-03-18T00:16:43.069Z,100472.32
2023-03-18T00:19:11.706Z,100473.91
2023-03-18T00:21:40.066Z,100474.63
2023-03-18T00:24:10.062Z,100473.10
2023-03-18T00:26:39.562Z,100471.64
2023-03-18T00:29:08.020Z,100472.46
2023-03-18T00:31:38.478Z,100475.12
2023-03-18T00:34:08.153Z,100480.77
2023-03-18T00:36:38.593Z,100481.17
2023-03-18T00:39:07.615Z,100479.66
2023-03-18T00:41:38.219Z,100480.95
2023-03-18T00:44:07.675Z,100481.38
2023-03-18T00:46:37.867Z,100482.02
2023-03-18T00:49:08.037Z,100480.73
2023-03-18T00:51:37.684Z,100482.49
2023-03-18T00:54:09.907Z,100478.59
2023-03-18T00:56:39.254Z,100481.88
2023-03-18T00:59:07.872Z,100481.12
2023-03-18T01:01:36.870Z,100482.99
2023-03-18T01:04:06.480Z,100488.73
2023-03-18T01:06:36.522Z,100486.79
2023-03-18T01:09:05.690Z,100491.38
2023-03-18T01:11:35.750Z,100490.33
2023-03-18T01:14:04.007Z,100487.04
2023-03-18T01:16:32.977Z,100486.55
2023-03-18T01:19:01.761Z,100490.87
2023-03-18T01:21:30.143Z,100492.95
2023-03-18T01:24:01.158Z,100493.23
2023-03-18T01:26:30.639Z,100496.36
2023-03-18T01:29:00.900Z,100499.88
2023-03-18T01:31:30.340Z,100500.92
2023-03-18T01:34:06.456Z,100499.34
2023-03-18T01:36:43.849Z,100506.07
2023-03-18T01:39:12.649Z,100511.71
2023-03-18T01:41:42.707Z,100511.48
2023-03-18T01:44:17.766Z,100510.36
2023-03-18T01:46:47.694Z,100513.85
2023-03-18T01:49:19.261Z,100512.80
2023-03-18T01:52:18.300Z,100513.63
2023-03-18T01:54:53.485Z,100514.24
2023-03-18T01:57:22.781Z,100518.61
2023-03-18T01:59:52.091Z,100522.33
2023-03-18T02:02:21.026Z,100520.48
2023-03-18T02:04:53.964Z,100519.12
2023-03-18T02:07:26.347Z,100525.27
2023-03-18T02:09:55.855Z,100524.90
2023-03-18T02:12:27.181Z,100528.39
2023-03-18T02:14:58.836Z,100529.95
2023-03-18T02:17:30.598Z,100531.19
2023-03-18T02:20:11.564Z,100533.36
2023-03-18T02:22:43.620Z,100540.34
2023-03-18T02:25:34.785Z,100542.60
2023-03-18T02:28:04.699Z,100543.75
2023-03-18T02:30:38.258Z,100546.98
2023-03-18T02:33:53.583Z,100551.52
2023-03-18T02:36:24.450Z,100546.48
2023-03-18T02:38:53.393Z,100551.90
2023-03-18T02:41:27.411Z,100550.36
2023-03-18T02:43:56.220Z,100549.28
2023-03-18T02:46:42.998Z,100554.27
2023-03-18T02:49:12.568Z,100557.29
2023-03-18T02:51:42.030Z,100555.19
2023-03-18T02:54:15.733Z,100557.99
2023-03-18T02:56:46.727Z,100558.08
2023-03-18T02:59:17.972Z,100558.13
2023-03-18T03:01:48.254Z,100554.09
2023-03-18T03:04:17.452Z,100551.81
2023-03-18T03:06:47.325Z,100551.20
2023-03-18T03:09:17.306Z,100554.77
2023-03-18T03:11:46.407Z,100555.80
2023-03-18T03:14:18.374Z,100556.59
2023-03-18T03:16:47.527Z,100560.91
2023-03-18T03:19:18.147Z,100560.48
2023-03-18T03:21:48.700Z,100562.77
2023-03-18T03:24:16.941Z,100561.92
2023-03-18T03:26:46.582Z,100561.66
2023-03-18T03:29:14.907Z,100560.93
2023-03-18T03:31:43.082Z,100556.34
2023-03-18T03:34:12.138Z,100562.20
2023-03-18T03:36:41.024Z,100559.64
2023-03-18T03:39:12.522Z,100563.67
2023-03-18T03:41:41.855Z,100561.67
2023-03-18T03:44:10.169Z,100562.57
2023-03-18T03:46:39.790Z,100563.88
2023-03-18T03:49:08.229Z,100562.02
2023-03-18T03:51:37.098Z,100563.84
2023-03-18T03:54:05.708Z,100563.20
2023-03-18T03:56:37.009Z,100560.71
2023-03-18T03:59:05.634Z,100564.18
2023-03-18T04:01:53.812Z,100563.10
2023-03-18T04:04:22.760Z,100563.63
2023-03-18T04:06:51.452Z,100563.21
2023-03-18T04:09:20.675Z,100563.95
2023-03-18T04:11:48.897Z,100563.98
2023-03-18T04:14:17.640Z,100562.75
2023-03-18T04:16:46.141Z,100565.27
2023-03-18T04:19:14.730Z,100569.25
2023-03-18T04:21:43.520Z,100571.89
2023-03-18T04:24:12.901Z,100570.74
2023-03-18T04:26:41.720Z,100571.73
2023-03-18T04:29:10.459Z,100574.84
2023-03-18T04:31:40.256Z,100570.55
2023-03-18T04:34:09.905Z,100573.20
2023-03-18T04:36:38.339Z,100577.25
2023-03-18T04:39:07.973Z,100576.52
2023-03-18T04:41:39.860Z,100577.04
2023-03-18T04:44:09.698Z,100575.72
2023-03-18T04:46:46.471Z,100576.10
2023-03-18T04:49:14.969Z,100577.67
2023-03-18T04:51:43.706Z,100576.62
2023-03-18T04:54:23.266Z,100575.77
2023-03-18T04:56:53.333Z,100577.85
2023-03-18T04:59:22.385Z,100580.70
2023-03-18T05:01:51.279Z,100581.05
2023-03-18T05:04:19.655Z,100582.20
2023-03-18T05:06:53.727Z,100583.50
2023-03-18T05:09:27.433Z,100583.75
2023-03-18T05:12:01.639Z,100583.69
2023-03-18T05:14:37.607Z,100584.94
2023-03-18T05:17:06.553Z,100585.82
2023-03-18T05:19:38.543Z,100586.56
2023-03-18T05:22:12.255Z,100584.89
2023-03-18T05:24:41.200Z,100586.16
2023-03-18T05:27:10.970Z,100589.46
2023-03-18T05:29:42.108Z,100587.31
2023-03-18T05:32:20.455Z,100586.14
2023-03-18T05:34:52.945Z,100587.35
2023-03-18T05:37:21.890Z,100591.16
2023-03-18T05:39:58.902Z,100596.48
2023-03-18T05:42:28.325Z,100595.80
2023-03-18T05:45:01.163Z,100599.98
2023-03-18T05:47:30.056Z,100598.59
2023-03-18T05:50:07.623Z,100601.05
2023-03-18T05:52:38.385Z,100602.01
2023-03-18T05:55:13.426Z,100606.14
2023-03-18T05:57:43.600Z,100606.12
2023-03-18T06:00:13.597Z,100604.40
2023-03-18T06:02:46.627Z,100608.05
2023-03-18T06:05:15.891Z,100608.21
2023-03-18T06:07:45.868Z,100611.45
2023-03-18T06:10:15.325Z,100611.76
2023-03-18T06:12:46.596Z,100614.36
2023-03-18T06:15:16.096Z,100614.77
2023-03-18T06:17:45.901Z,100616.17
2023-03-18T06:20:14.890Z,100617.73
2023-03-18T06:22:49.180Z,100620.30
2023-03-18T06:25:19.575Z,100623.70
2023-03-18T06:27:48.188Z,100624.86
2023-03-18T06:30:25.384Z,100628.05
2023-03-18T06:32:57.506Z,100624.34
2023-03-18T06:35:32.331Z,100625.91
2023-03-18T06:38:01.584Z,100629.45
2023-03-18T06:40:31.445Z,100628.36
2023-03-18T06:43:00.696Z,100629.96
2023-03-18T06:45:37.147Z,100630.85
2023-03-18T06:48:08.646Z,100629.66
2023-03-18T06:50:42.384Z,100630.07
2023-03-18T06:53:19.121Z,100624.77
2023-03-18T06:55:48.696Z,100633.02
2023-03-18T06:58:18.658Z,100633.23
2023-03-18T07:00:59.051Z,100631.17
2023-03-18T07:03:30.502Z,100628.41
2023-03-18T07:05:59.441Z,100629.91
2023-03-18T07:08:29.387Z,100632.63
2023-03-18T07:10:58.076Z,100633.66
2023-03-18T07:13:31.444Z,100634.11
2023-03-18T07:16:00.539Z,100629.05
2023-03-18T07:18:29.818Z,100627.44
2023-03-18T07:21:04.640Z,100627.52
2023-03-18T07:23:34.549Z,100624.59
2023-03-18T07:26:02.925Z,100628.80
2023-03-18T07:28:33.257Z,100626.94
2023-03-18T07:31:01.933Z,100627.73
2023-03-18T07:33:34.959Z,100629.57
2023-03-18T07:36:03.779Z,100633.43
2023-03-18T07:38:32.331Z,100635.90
2023-03-18T07:41:01.733Z,100636.92
2023-03-18T07:43:30.477Z,100639.17
2023-03-18T07:45:59.913Z,100635.84
2023-03-18T07:48:28.239Z,100634.11
2023-03-18T07:50:56.979Z,100637.11
2023-03-18T07:53:25.480Z,100636.64
2023-03-18T07:55:54.182Z,100633.89
2023-03-18T07:58:22.733Z,100628.71
2023-03-18T08:00:52.698Z,100629.79
2023-03-18T08:03:21.192Z,100629.73
2023-03-18T08:05:50.067Z,100632.91
2023-03-18T08:08:18.712Z,100636.94
2023-03-18T08:10:50.168Z,100638.86
2023-03-18T08:13:18.856Z,100639.02
2023-03-18T08:15:48.470Z,100636.44
2023-03-18T08:18:16.947Z,100634.91
2023-03-18T08:20:46.277Z,100631.88
2023-03-18T08:23:14.964Z,100631.99
2023-03-18T08:25:44.088Z,100632.68
2023-03-18T08:28:12.928Z,100629.45
2023-03-18T08:30:41.694Z,100629.39
2023-03-18T08:33:10.265Z,100628.58
2023-03-18T08:35:41.538Z,100628.70
2023-03-18T08:38:16.667Z,100628.69
2023-03-18T08:40:47.596Z,100629.60
2023-03-18T08:43:15.943Z,100630.27
2023-03-18T08:45:44.489Z,100633.27
2023-03-18T08:48:13.420Z,100629.19
2023-03-18T08:50:43.210Z,100631.28
2023-03-18T08:53:13.286Z,100626.05
2023-03-18T08:55:41.763Z,100628.16
2023-03-18T08:58:10.689Z,100630.32
2023-03-18T09:00:40.329Z,100630.63
2023-03-18T09:03:11.074Z,100632.86
2023-03-18T09:05:40.610Z,100631.55
2023-03-18T09:08:09.253Z,100637.04
2023-03-18T09:10:41.654Z,100637.90
2023-03-18T09:13:10.135Z,100641.23
2023-03-18T09:15:39.722Z,100638.08
2023-03-18T09:18:15.427Z,100640.83
2023-03-18T09:20:45.417Z,100643.25
2023-03-18T09:23:14.544Z,100645.28
2023-03-18T09:25:43.442Z,100643.15
2023-03-18T09:28:11.837Z,100642.71
2023-03-18T09:30:40.606Z,100637.40
2023-03-18T09:33:11.668Z,100634.50
2023-03-18T09:35:47.744Z,100633.24
2023-03-18T09:38:17.522Z,100632.67
2023-03-18T09:40:56.293Z,100633.05
2023-03-18T09:43:45.166Z,100632.35
2023-03-18T09:46:18.607Z,100630.48
2023-03-18T09:49:25.424Z,100631.91
2023-03-18T09:52:18.648Z,100629.76
2023-03-18T09:54:53.736Z,100632.66
2023-03-18T09:57:37.067Z,100633.19
2023-03-18T10:00:29.599Z,100632.36
2023-03-18T10:03:13.176Z,100632.20
2023-03-18T10:06:21.724Z,100636.30
2023-03-18T10:08:58.692Z,100632.73
2023-03-18T10:11:42.916Z,100629.30
2023-03-18T10:14:24.874Z,100627.98
2023-03-18T10:17:15.112Z,100626.09
2023-03-18T10:19:50.248Z,100628.66
2023-03-18T10:22:31.198Z,100630.42
2023-03-18T10:25:18.860Z,100628.86
2023-03-18T10:28:04.341Z,100629.66
2023-03-18T10:31:11.224Z,100629.07
2023-03-18T10:33:46.629Z,100626.05
2023-03-18T10:36:29.722Z,100625.66
2023-03-18T10:38:59.415Z,100617.74
2023-03-18T10:41:33.476Z,100614.66
2023-03-18T10:44:16.322Z,100615.14
2023-03-18T10:46:46.679Z,100616.67
2023-03-18T10:49:24.168Z,100620.33
2023-03-18T10:52:16.052Z,100620.54
2023-03-18T10:54:52.833Z,100615.84
2023-03-18T10:57:24.593Z,100613.48
2023-03-18T10:59:55.785Z,100616.31
2023-03-18T11:02:32.154Z,100620.06
2023-03-18T11:05:04.758Z,100621.39
2023-03-18T11:07:36.265Z,100625.28
2023-03-18T11:10:14.098Z,100621.49
2023-03-18T11:12:42.703Z,100620.08
2023-03-18T11:15:11.572Z,100622.35
2023-03-18T11:17:41.028Z,100619.54
2023-03-18T11:20:45.660Z,100618.21
2023-03-18T11:23:20.772Z,100614.34
2023-03-18T11:25:50.121Z,100613.20
2023-03-18T11:28:23.556Z,100614.45
2023-03-18T11:30:56.360Z,100613.92
2023-03-18T11:33:25.977Z,100610.59
2023-03-18T11:35:58.832Z,100608.44
2023-03-18T11:38:29.525Z,100606.73
2023-03-18T11:41:11.181Z,100600.79
2023-03-18T11:43:40.071Z,100602.72
2023-03-18T11:46:09.226Z,100602.44
2023-03-18T11:48:40.399Z,100600.55
2023-03-18T11:51:23.676Z,100600.44
2023-03-18T11:54:07.364Z,100600.52
2023-03-18T11:56:39.539Z,100601.66
2023-03-18T11:59:27.028Z,100603.63
2023-03-18T12:02:14.484Z,100602.96
2023-03-18T12:04:45.204Z,100596.81
2023-03-18T12:07:39.089Z,100594.64
2023-03-18T12:10:27.336Z,100594.63
2023-03-18T12:13:29.919Z,100594.23
2023-03-18T12:16:07.504Z,100590.86
2023-03-18T12:18:57.912Z,100590.14
2023-03-18T12:21:32.375Z,100591.21
2023-03-18T12:24:20.791Z,100587.02
2023-03-18T12:27:01.224Z,100586.04
2023-03-18T12:30:11.778Z,100584.88
2023-03-18T12:33:04.499Z,100582.63
2023-03-18T12:36:04.091Z,100581.74
2023-03-18T12:38:58.171Z,100584.91
2023-03-18T12:41:42.888Z,100587.52
2023-03-18T12:44:57.792Z,100581.88
2023-03-18T12:47:52.048Z,100579.63
2023-03-18T12:50:47.828Z,100575.90
2023-03-18T12:53:29.056Z,100575.52
2023-03-18T12:56:05.780Z,100574.16
2023-03-18T12:58:39.884Z,100581.72
2023-03-18T13:01:28.788Z,100576.02
2023-03-18T13:04:01.620Z,100576.54
2023-03-18T13:06:39.613Z,100571.67
2023-03-18T13:09:17.439Z,100570.86
2023-03-18T13:11:49.536Z,100563.65
2023-03-18T13:14:22.697Z,100565.05
2023-03-18T13:16:51.263Z,100563.33
2023-03-18T13:19:19.777Z,100559.32
2023-03-18T13:21:52.790Z,100554.77
2023-03-18T13:24:44.288Z,100554.00
2023-03-18T13:27:40.478Z,100552.94
2023-03-18T13:30:24.126Z,100550.34
2023-03-18T13:33:02.937Z,100546.25
2023-03-18T13:35:36.704Z,100545.73
2023-03-18T13:38:20.025Z,100543.69
2023-03-18T13:41:22.583Z,100540.67
2023-03-18T13:43:52.141Z,100538.98
2023-03-18T13:46:23.841Z,100542.43
2023-03-18T13:48:57.148Z,100538.63
2023-03-18T13:51:25.547Z,100540.95
2023-03-18T13:53:55.079Z,100537.49
2023-03-18T13:56:43.460Z,100538.71
2023-03-18T13:59:34.225Z,100530.66
2023-03-18T14:02:43.836Z,100529.13
2023-03-18T14:05:32.563Z,100527.90
2023-03-18T14:08:23.507Z,100530.46
2023-03-18T14:11:23.067Z,100529.23
2023-03-18T14:14:12.318Z,100523.35
2023-03-18T14:16:41.393Z,100525.41
2023-03-18T14:19:24.289Z,100525.18
2023-03-18T14:21:55.204Z,100520.67
2023-03-18T14:24:26.349Z,100521.99
2023-03-18T14:27:03.690Z,100520.94
2023-03-18T14:29:45.257Z,100520.87
2023-03-18T14:32:31.277Z,100522.08
2023-03-18T14:35:18.679Z,100521.88
2023-03-18T14:38:10.094Z,100518.14
2023-03-18T14:40:40.994Z,100520.83
2023-03-18T14:43:30.718Z,100515.13
2023-03-18T14:46:02.082Z,100515.13
2023-03-18T14:49:57.905Z,100516.05
2023-03-18T14:52:30.379Z,100513.81
2023-03-18T14:55:02.453Z,100510.76
2023-03-18T14:57:31.116Z,100508.52
2023-03-18T15:00:00.416Z,100511.56
2023-03-18T15:02:33.032Z,100513.31
2023-03-18T15:05:02.152Z,100506.86
2023-03-18T15:07:35.441Z,100510.05
2023-03-18T15:10:14.850Z,100507.45
2023-03-18T15:12:43.628Z,100503.23
2023-03-18T15:15:17.982Z,100505.24
2023-03-18T15:17:49.366Z,100508.15
2023-03-18T15:20:22.196Z,100510.98
2023-03-18T15:22:50.730Z,100509.77
2023-03-18T15:25:20.767Z,100509.59
2023-03-18T15:27:49.695Z,100509.20
2023-03-18T15:30:25.335Z,100507.15
2023-03-18T15:33:28.771Z,100504.25
2023-03-18T15:36:03.575Z,100502.54
2023-03-18T15:38:32.116Z,100509.59
2023-03-18T15:41:12.265Z,100506.45
2023-03-18T15:43:46.129Z,100510.98
2023-03-18T15:46:27.405Z,100513.67
2023-03-18T15:48:56.295Z,100516.66
2023-03-18T15:51:55.782Z,100518.41
2023-03-18T15:54:31.023Z,100516.77
2023-03-18T15:57:11.247Z,100512.98
2023-03-18T15:59:40.177Z,100515.71
2023-03-18T16:02:14.694Z,100513.75
2023-03-18T16:04:44.997Z,100518.48
2023-03-18T16:07:28.564Z,100514.96
2023-03-18T16:09:56.918Z,100513.30
2023-03-18T16:12:25.413Z,100514.38
2023-03-18T16:14:53.967Z,100515.38
2023-03-18T16:17:22.806Z,100519.84
2023-03-18T16:19:55.378Z,100520.30
2023-03-18T16:22:23.700Z,100518.16
2023-03-18T16:24:53.331Z,100522.05
2023-03-18T16:27:28.693Z,100521.31
2023-03-18T16:29:57.376Z,100523.48
2023-03-18T16:32:26.402Z,100525.30
2023-03-18T16:34:55.305Z,100522.89
2023-03-18T16:37:26.025Z,100526.59
2023-03-18T16:39:57.765Z,100527.16
2023-03-18T16:42:27.453Z,100528.73
2023-03-18T16:44:56.092Z,100527.52
2023-03-18T16:47:26.649Z,100527.28
2023-03-18T16:49:56.717Z,100526.66
2023-03-18T16:52:25.544Z,100521.40
2023-03-18T16:54:53.917Z,100521.86
2023-03-18T16:57:24.214Z,100523.30
2023-03-18T16:59:56.120Z,100523.46
2023-03-18T17:02:36.630Z,100522.47
2023-03-18T17:05:06.705Z,100524.19
2023-03-18T17:07:37.093Z,100523.29
2023-03-18T17:10:06.513Z,100521.41
2023-03-18T17:12:37.421Z,100520.23
2023-03-18T17:15:09.836Z,100520.98
2023-03-18T17:17:39.380Z,100520.33
2023-03-18T17:20:21.377Z,100522.42
2023-03-18T17:22:50.908Z,100522.20
2023-03-18T17:25:19.955Z,100525.76
2023-03-18T17:27:56.835Z,100527.85
2023-03-18T17:30:36.087Z,100531.77
2023-03-18T17:33:05.498Z,100531.67
2023-03-18T17:35:36.104Z,100532.80
2023-03-18T17:38:05.992Z,100541.49
2023-03-18T17:40:34.555Z,100538.48
2023-03-18T17:43:05.427Z,100538.14
2023-03-18T17:45:37.013Z,100536.99
2023-03-18T17:48:16.345Z,100541.00
2023-03-18T17:50:45.142Z,100542.89
2023-03-18T17:53:37.489Z,100539.27
2023-03-18T17:56:07.977Z,100543.77
2023-03-18T17:58:37.361Z,100542.20
2023-03-18T18:01:13.194Z,100539.92
2023-03-18T18:03:41.807Z,100541.71
2023-03-18T18:06:21.804Z,100544.00
2023-03-18T18:08:50.247Z,100548.15
2023-03-18T18:11:29.626Z,100548.16
2023-03-18T18:14:19.895Z,100547.52
2023-03-18T18:16:48.637Z,100547.74
2023-03-18T18:19:24.496Z,100545.93
2023-03-18T18:21:53.644Z,100544.14
2023-03-18T18:24:29.344Z,100546.82
2023-03-18T18:26:58.491Z,100547.02
2023-03-18T18:29:28.514Z,100547.45
2023-03-18T18:31:58.428Z,100549.73
2023-03-18T18:34:28.247Z,100546.33
2023-03-18T18:36:56.964Z,100544.20
2023-03-18T18:39:25.340Z,100544.60
2023-03-18T18:42:08.605Z,100537.98
2023-03-18T18:44:37.785Z,100542.78
2023-03-18T18:47:16.528Z,100543.95
2023-03-18T18:49:44.896Z,100544.52
2023-03-18T18:52:13.230Z,100543.54
2023-03-18T18:54:42.178Z,100544.55
2023-03-18T18:57:31.397Z,100546.48
2023-03-18T18:59:59.826Z,100546.79
2023-03-18T19:02:35.124Z,100545.69
2023-03-18T19:05:04.917Z,100545.31
2023-03-18T19:07:33.906Z,100547.16
2023-03-18T19:10:02.623Z,100549.23
2023-03-18T19:12:32.333Z,100546.11
2023-03-18T19:15:07.046Z,100542.45
2023-03-18T19:17:36.505Z,100549.52
2023-03-18T19:20:05.617Z,100555.02
2023-03-18T19:22:36.736Z,100556.51
2023-03-18T19:25:10.025Z,100552.05
2023-03-18T19:27:38.394Z,100554.68
2023-03-18T19:30:21.338Z,100555.98
2023-03-18T19:32:50.816Z,100558.65
2023-03-18T19:35:19.892Z,100558.23
2023-03-18T19:37:48.986Z,100553.05
2023-03-18T19:40:30.289Z,100557.19
2023-03-18T19:43:00.524Z,100555.85
2023-03-18T19:45:29.304Z,100553.39
2023-03-18T19:48:02.837Z,100552.09
2023-03-18T19:50:31.856Z,100553.27
2023-03-18T19:53:10.837Z,100553.42
2023-03-18T19:55:41.624Z,100550.61
2023-03-18T19:58:28.204Z,100552.98
2023-03-18T20:00:56.889Z,100551.41
2023-03-18T20:03:27.008Z,100548.50
2023-03-18T20:06:03.554Z,100546.16
2023-03-18T20:08:32.001Z,100543.14
2023-03-18T20:11:00.562Z,100538.48
2023-03-18T20:13:31.944Z,100535.80
2023-03-18T20:16:00.903Z,100532.34
2023-03-18T20:18:29.518Z,100531.98
2023-03-18T20:20:58.924Z,100531.01
2023-03-18T20:23:29.403Z,100534.45
2023-03-18T20:25:57.964Z,100534.25
2023-03-18T20:28:27.646Z,100532.63
2023-03-18T20:30:57.573Z,100532.72
2023-03-18T20:33:27.154Z,100531.45
2023-03-18T20:35:55.684Z,100533.44
2023-03-18T20:38:31.803Z,100530.34
2023-03-18T20:41:01.234Z,100526.42
2023-03-18T20:43:30.380Z,100527.08
2023-03-18T20:45:59.586Z,100526.39
2023-03-18T20:48:30.589Z,100528.44
2023-03-18T20:50:59.893Z,100527.27
2023-03-18T20:53:29.096Z,100522.40
2023-03-18T20:55:57.673Z,100521.20
2023-03-18T20:58:27.559Z,100519.70
2023-03-18T21:00:56.473Z,100520.41
2023-03-18T21:03:31.803Z,100521.95
2023-03-18T21:06:02.538Z,100519.45
2023-03-18T21:08:33.057Z,100518.42
2023-03-18T21:11:03.963Z,100515.21
2023-03-18T21:13:39.290Z,100520.07
2023-03-18T21:16:13.145Z,100519.03
2023-03-18T21:18:50.125Z,100523.13
2023-03-18T21:21:31.532Z,100526.53
2023-03-18T21:23:59.913Z,100526.52
2023-03-18T21:26:29.402Z,100528.73
2023-03-18T21:28:58.058Z,100533.71
2023-03-18T21:31:31.421Z,100529.90
2023-03-18T21:34:01.299Z,100532.39
2023-03-18T21:36:30.149Z,100531.59
2023-03-18T21:38:58.963Z,100533.05
2023-03-18T21:41:28.876Z,100530.28
2023-03-18T21:44:01.013Z,100529.81
2023-03-18T21:46:30.706Z,100527.40
2023-03-18T21:48:59.046Z,100524.44
2023-03-18T21:51:38.606Z,100524.00
2023-03-18T21:54:18.638Z,100528.67
2023-03-18T21:56:48.275Z,100531.08
2023-03-18T21:59:16.796Z,100529.64
2023-03-18T22:01:46.929Z,100531.91
2023-03-18T22:04:15.797Z,100527.64
2023-03-18T22:06:44.227Z,100522.99
2023-03-18T22:09:12.679Z,100520.14
2023-03-18T22:11:41.663Z,100515.45
2023-03-18T22:14:12.765Z,100515.84
2023-03-18T22:16:41.517Z,100513.47
2023-03-18T22:19:09.750Z,100514.23
2023-03-18T22:21:40.830Z,100517.70
2023-03-18T22:24:14.156Z,100515.96
2023-03-18T22:26:42.590Z,100511.13
2023-03-18T22:29:13.132Z,100509.39
2023-03-18T22:31:43.934Z,100510.41
2023-03-18T22:34:20.672Z,100510.17
2023-03-18T22:36:49.029Z,100506.91
2023-03-18T22:39:17.980Z,100508.66
2023-03-18T22:41:46.841Z,100502.98
2023-03-18T22:44:21.449Z,100502.39
2023-03-18T22:46:49.857Z,100502.77
2023-03-18T22:49:18.201Z,100506.02
2023-03-18T22:51:46.918Z,100504.04
2023-03-18T22:54:19.346Z,100505.20
2023-03-18T22:56:47.882Z,100508.49
2023-03-18T22:59:16.193Z,100504.95
2023-03-18T23:01:46.838Z,100499.14
2023-03-18T23:04:18.471Z,100497.34
2023-03-18T23:06:52.613Z,100499.63
2023-03-18T23:09:21.331Z,100495.70
2023-03-18T23:11:49.728Z,100492.13
2023-03-18T23:14:18.063Z,100487.30
2023-03-18T23:16:46.916Z,100486.73
2023-03-18T23:19:15.538Z,100483.23
2023-03-18T23:21:44.161Z,100482.63
2023-03-18T23:24:15.412Z,100480.11
2023-03-18T23:26:45.419Z,100477.41
2023-03-18T23:29:13.713Z,100477.65
2023-03-18T23:31:41.986Z,100476.71
2023-03-18T23:34:10.543Z,100478.78
2023-03-18T23:36:38.949Z,100474.63
2023-03-18T23:39:10.450Z,100473.20
2023-03-18T23:41:42.235Z,100471.83
2023-03-18T23:44:11.410Z,100468.05
2023-03-18T23:46:42.416Z,100465.73
2023-03-18T23:49:11.924Z,100467.05
2023-03-18T23:51:41.045Z,100465.89
2023-03-18T23:54:09.771Z,100463.62
2023-03-18T23:56:38.560Z,100458.84
2023-03-18T23:59:07.015Z,100459.98
